sensor_id;sensor_type;location;lat;lon;timestamp;pressure;altitude;pressure_sealevel;temperature;humidity
69707;BME280;56975;55.726;37.566;2023-07-13T00:00:00;98820.0;;;13.6;74.7
69707;BME280;56975;55.726;37.566;2023-07-13T00:05:00;98830.0;;;13.5;76.2
69707;BME280;56975;55.726;37.566;2023-07-13T00:10:00;98840.0;;;13.6;75.9
69707;BME280;56975;55.726;37.566;2023-07-13T00:15:05;98850.0;;;13.6;75.8
69707;BME280;56975;55.726;37.566;2023-07-13T00:20:00;98850.0;;;13.5;76.3
69707;BME280;56975;55.726;37.566;2023-07-13T00:25:00;98830.0;;;13.7;75.5
69707;BME280;56975;55.726;37.566;2023-07-13T00:30:00;98840.0;;;13.5;76.3
69707;BME280;56975;55.726;37.566;2023-07-13T00:35:00;98840.0;;;13.5;76.4
69707;BME280;56975;55.726;37.566;2023-07-13T00:40:00;98840.0;;;13.6;76.3
69707;BME280;56975;55.726;37.566;2023-07-13T00:45:02;98840.0;;;13.4;76.9
69707;BME280;56975;55.726;37.566;2023-07-13T00:50:00;98840.0;;;13.5;76.6
69707;BME280;56975;55.726;37.566;2023-07-13T00:55:00;98840.0;;;13.4;77.3
69707;BME280;56975;55.726;37.566;2023-07-13T01:00:04;98840.0;;;13.2;78.4
69707;BME280;56975;55.726;37.566;2023-07-13T01:05:00;98840.0;;;13.4;77.8
69707;BME280;56975;55.726;37.566;2023-07-13T01:10:00;98840.0;;;13.3;78.2
69707;BME280;56975;55.726;37.566;2023-07-13T01:15:02;98830.0;;;13.2;78.5
69707;BME280;56975;55.726;37.566;2023-07-13T01:20:00;98830.0;;;13.4;77.7
69707;BME280;56975;55.726;37.566;2023-07-13T01:25:00;98830.0;;;13.1;79.1
69707;BME280;56975;55.726;37.566;2023-07-13T01:30:00;98820.0;;;13.4;78.2
69707;BME280;56975;55.726;37.566;2023-07-13T01:35:00;98820.0;;;13.1;79.7
69707;BME280;56975;55.726;37.566;2023-07-13T01:40:00;98810.0;;;13.2;79.5
69707;BME280;56975;55.726;37.566;2023-07-13T01:45:00;98810.0;;;13.5;78.2
69707;BME280;56975;55.726;37.566;2023-07-13T01:50:00;98810.0;;;13.2;79.4
69707;BME280;56975;55.726;37.566;2023-07-13T01:55:00;98810.0;;;13.4;79.1
69707;BME280;56975;55.726;37.566;2023-07-13T02:00:02;98810.0;;;13.4;78.6
69707;BME280;56975;55.726;37.566;2023-07-13T02:05:00;98810.0;;;13.2;79.5
69707;BME280;56975;55.726;37.566;2023-07-13T02:10:00;98800.0;;;13.4;79.1
69707;BME280;56975;55.726;37.566;2023-07-13T02:15:00;98800.0;;;13.2;80.0
69707;BME280;56975;55.726;37.566;2023-07-13T02:20:00;98800.0;;;13.2;79.9
69707;BME280;56975;55.726;37.566;2023-07-13T02:25:01;98800.0;;;13.4;78.9
69707;BME280;56975;55.726;37.566;2023-07-13T02:30:00;98790.0;;;13.4;79.5
69707;BME280;56975;55.726;37.566;2023-07-13T02:35:00;98790.0;;;13.3;79.8
69707;BME280;56975;55.726;37.566;2023-07-13T02:40:00;98790.0;;;13.5;78.9
69707;BME280;56975;55.726;37.566;2023-07-13T02:45:00;98780.0;;;13.5;78.9
69707;BME280;56975;55.726;37.566;2023-07-13T02:50:00;98780.0;;;13.7;77.6
69707;BME280;56975;55.726;37.566;2023-07-13T02:55:00;98790.0;;;13.6;78.3
69707;BME280;56975;55.726;37.566;2023-07-13T03:00:00;98790.0;;;13.4;79.2
69707;BME280;56975;55.726;37.566;2023-07-13T03:05:00;98790.0;;;13.6;78.8
69707;BME280;56975;55.726;37.566;2023-07-13T03:10:00;98780.0;;;13.8;77.9
69707;BME280;56975;55.726;37.566;2023-07-13T03:15:00;98770.0;;;13.9;77.2
69707;BME280;56975;55.726;37.566;2023-07-13T03:20:00;98770.0;;;13.9;77.2
69707;BME280;56975;55.726;37.566;2023-07-13T03:25:00;98780.0;;;13.6;78.5
69707;BME280;56975;55.726;37.566;2023-07-13T03:30:00;98780.0;;;13.6;79.1
69707;BME280;56975;55.726;37.566;2023-07-13T03:35:00;98780.0;;;13.9;77.8
69707;BME280;56975;55.726;37.566;2023-07-13T03:40:00;98790.0;;;13.8;78.6
69707;BME280;56975;55.726;37.566;2023-07-13T03:45:00;98790.0;;;13.8;78.7
69707;BME280;56975;55.726;37.566;2023-07-13T03:50:00;98790.0;;;13.9;78.6
69707;BME280;56975;55.726;37.566;2023-07-13T03:55:00;98780.0;;;14.2;77.2
69707;BME280;56975;55.726;37.566;2023-07-13T04:00:00;98790.0;;;13.9;78.5
69707;BME280;56975;55.726;37.566;2023-07-13T04:05:00;98790.0;;;14.0;78.1
69707;BME280;56975;55.726;37.566;2023-07-13T04:10:00;98780.0;;;14.3;76.9
69707;BME280;56975;55.726;37.566;2023-07-13T04:15:00;98800.0;;;14.5;76.1
69707;BME280;56975;55.726;37.566;2023-07-13T04:20:00;98800.0;;;14.4;76.6
69707;BME280;56975;55.726;37.566;2023-07-13T04:25:00;98790.0;;;14.3;76.7
69707;BME280;56975;55.726;37.566;2023-07-13T04:30:00;98790.0;;;14.6;75.3
69707;BME280;56975;55.726;37.566;2023-07-13T04:35:00;98780.0;;;14.7;75.0
69707;BME280;56975;55.726;37.566;2023-07-13T04:40:00;98790.0;;;14.8;75.1
69707;BME280;56975;55.726;37.566;2023-07-13T04:45:00;98780.0;;;14.4;76.4
69707;BME280;56975;55.726;37.566;2023-07-13T04:50:00;98780.0;;;14.8;74.4
69707;BME280;56975;55.726;37.566;2023-07-13T04:55:00;98780.0;;;15.0;73.8
69707;BME280;56975;55.726;37.566;2023-07-13T05:00:00;98790.0;;;15.1;73.1
69707;BME280;56975;55.726;37.566;2023-07-13T05:05:01;98800.0;;;15.1;73.0
69707;BME280;56975;55.726;37.566;2023-07-13T05:10:00;98800.0;;;15.4;72.2
69707;BME280;56975;55.726;37.566;2023-07-13T05:15:00;98790.0;;;15.5;71.4
69707;BME280;56975;55.726;37.566;2023-07-13T05:20:00;98800.0;;;15.9;69.1
69707;BME280;56975;55.726;37.566;2023-07-13T05:25:00;98800.0;;;16.0;69.0
69707;BME280;56975;55.726;37.566;2023-07-13T05:30:00;98800.0;;;16.0;69.2
69707;BME280;56975;55.726;37.566;2023-07-13T05:35:00;98790.0;;;16.3;67.9
69707;BME280;56975;55.726;37.566;2023-07-13T05:40:00;98790.0;;;16.5;67.5
69707;BME280;56975;55.726;37.566;2023-07-13T05:45:01;98790.0;;;16.7;66.4
69707;BME280;56975;55.726;37.566;2023-07-13T05:50:00;98800.0;;;16.9;65.7
69707;BME280;56975;55.726;37.566;2023-07-13T05:55:00;98780.0;;;16.9;64.4
69707;BME280;56975;55.726;37.566;2023-07-13T06:00:00;98790.0;;;17.1;63.0
69707;BME280;56975;55.726;37.566;2023-07-13T06:05:00;98790.0;;;17.3;62.2
69707;BME280;56975;55.726;37.566;2023-07-13T06:10:00;98780.0;;;17.3;61.6
69707;BME280;56975;55.726;37.566;2023-07-13T06:15:00;98780.0;;;17.2;62.7
69707;BME280;56975;55.726;37.566;2023-07-13T06:20:00;98770.0;;;17.8;59.7
69707;BME280;56975;55.726;37.566;2023-07-13T06:25:00;98770.0;;;18.0;57.5
69707;BME280;56975;55.726;37.566;2023-07-13T06:30:00;98760.0;;;17.9;58.3
69707;BME280;56975;55.726;37.566;2023-07-13T06:35:00;98760.0;;;18.3;56.2
69707;BME280;56975;55.726;37.566;2023-07-13T06:40:00;98750.0;;;18.2;57.4
69707;BME280;56975;55.726;37.566;2023-07-13T06:45:00;98750.0;;;18.5;55.1
69707;BME280;56975;55.726;37.566;2023-07-13T06:50:00;98760.0;;;18.4;54.9
69707;BME280;56975;55.726;37.566;2023-07-13T06:55:01;98760.0;;;18.3;55.3
69707;BME280;56975;55.726;37.566;2023-07-13T07:00:00;98760.0;;;18.0;56.1
69707;BME280;56975;55.726;37.566;2023-07-13T07:05:00;98780.0;;;18.0;55.8
69707;BME280;56975;55.726;37.566;2023-07-13T07:10:00;98770.0;;;18.1;55.5
69707;BME280;56975;55.726;37.566;2023-07-13T07:15:00;98750.0;;;18.2;53.4
69707;BME280;56975;55.726;37.566;2023-07-13T07:20:00;98760.0;;;17.9;55.1
69707;BME280;56975;55.726;37.566;2023-07-13T07:25:00;98760.0;;;18.2;53.3
69707;BME280;56975;55.726;37.566;2023-07-13T07:30:00;98760.0;;;18.3;53.2
69707;BME280;56975;55.726;37.566;2023-07-13T07:35:00;98760.0;;;18.2;53.0
69707;BME280;56975;55.726;37.566;2023-07-13T07:40:00;98770.0;;;18.3;52.4
69707;BME280;56975;55.726;37.566;2023-07-13T07:45:00;98780.0;;;18.2;53.6
69707;BME280;56975;55.726;37.566;2023-07-13T07:50:00;98780.0;;;18.2;54.0
69707;BME280;56975;55.726;37.566;2023-07-13T07:55:00;98780.0;;;17.9;56.5
69707;BME280;56975;55.726;37.566;2023-07-13T08:00:00;98780.0;;;17.9;57.4
69707;BME280;56975;55.726;37.566;2023-07-13T08:05:00;98780.0;;;17.6;58.6
69707;BME280;56975;55.726;37.566;2023-07-13T08:10:00;98780.0;;;17.7;59.4
69707;BME280;56975;55.726;37.566;2023-07-13T08:15:00;98780.0;;;17.9;57.7
69707;BME280;56975;55.726;37.566;2023-07-13T08:20:00;98790.0;;;17.6;58.3
69707;BME280;56975;55.726;37.566;2023-07-13T08:25:01;98780.0;;;17.8;57.4
69707;BME280;56975;55.726;37.566;2023-07-13T08:30:00;98780.0;;;17.7;57.3
69707;BME280;56975;55.726;37.566;2023-07-13T08:35:00;98780.0;;;17.9;56.9
69707;BME280;56975;55.726;37.566;2023-07-13T08:40:00;98790.0;;;17.9;55.1
69707;BME280;56975;55.726;37.566;2023-07-13T08:45:08;98790.0;;;17.6;57.7
69707;BME280;56975;55.726;37.566;2023-07-13T08:50:00;98790.0;;;17.5;58.8
69707;BME280;56975;55.726;37.566;2023-07-13T08:55:05;98800.0;;;17.3;61.1
69707;BME280;56975;55.726;37.566;2023-07-13T09:00:00;98800.0;;;17.1;64.5
69707;BME280;56975;55.726;37.566;2023-07-13T09:05:03;98810.0;;;17.2;65.3
69707;BME280;56975;55.726;37.566;2023-07-13T09:10:05;98810.0;;;17.0;67.9
69707;BME280;56975;55.726;37.566;2023-07-13T09:15:02;98810.0;;;17.1;67.8
69707;BME280;56975;55.726;37.566;2023-07-13T09:20:02;98810.0;;;16.9;68.8
69707;BME280;56975;55.726;37.566;2023-07-13T09:25:06;98820.0;;;16.9;69.0
69707;BME280;56975;55.726;37.566;2023-07-13T09:30:15;98830.0;;;16.6;70.7
69707;BME280;56975;55.726;37.566;2023-07-13T09:35:00;98830.0;;;16.0;75.7
69707;BME280;56975;55.726;37.566;2023-07-13T09:40:01;98830.0;;;16.1;74.6
69707;BME280;56975;55.726;37.566;2023-07-13T09:45:02;98830.0;;;16.3;74.3
69707;BME280;56975;55.726;37.566;2023-07-13T09:50:02;98830.0;;;15.8;77.3
69707;BME280;56975;55.726;37.566;2023-07-13T09:55:00;98830.0;;;15.9;77.7
69707;BME280;56975;55.726;37.566;2023-07-13T10:00:00;98830.0;;;15.8;77.6
69707;BME280;56975;55.726;37.566;2023-07-13T10:05:02;98830.0;;;15.8;77.3
69707;BME280;56975;55.726;37.566;2023-07-13T10:10:01;98820.0;;;16.1;74.9
69707;BME280;56975;55.726;37.566;2023-07-13T10:15:01;98820.0;;;15.6;78.0
69707;BME280;56975;55.726;37.566;2023-07-13T10:20:02;98830.0;;;15.5;77.4
69707;BME280;56975;55.726;37.566;2023-07-13T10:25:00;98820.0;;;15.4;79.5
69707;BME280;56975;55.726;37.566;2023-07-13T10:30:06;98820.0;;;15.5;78.0
69707;BME280;56975;55.726;37.566;2023-07-13T10:35:00;98820.0;;;15.0;81.2
69707;BME280;56975;55.726;37.566;2023-07-13T10:40:01;98840.0;;;14.9;80.5
69707;BME280;56975;55.726;37.566;2023-07-13T10:45:00;98840.0;;;14.7;82.2
69707;BME280;56975;55.726;37.566;2023-07-13T10:50:00;98840.0;;;14.7;83.2
69707;BME280;56975;55.726;37.566;2023-07-13T10:55:02;98850.0;;;14.4;85.2
69707;BME280;56975;55.726;37.566;2023-07-13T11:00:14;98850.0;;;14.2;87.4
69707;BME280;56975;55.726;37.566;2023-07-13T11:05:17;98850.0;;;14.1;89.6
69707;BME280;56975;55.726;37.566;2023-07-13T11:10:04;98840.0;;;13.8;91.7
69707;BME280;56975;55.726;37.566;2023-07-13T11:15:04;98830.0;;;13.8;94.3
69707;BME280;56975;55.726;37.566;2023-07-13T11:20:09;98840.0;;;14.0;91.8
69707;BME280;56975;55.726;37.566;2023-07-13T11:25:06;98840.0;;;13.8;92.9
69707;BME280;56975;55.726;37.566;2023-07-13T11:30:19;98830.0;;;13.8;91.1
69707;BME280;56975;55.726;37.566;2023-07-13T11:35:00;98830.0;;;13.8;91.7
69707;BME280;56975;55.726;37.566;2023-07-13T11:40:00;98820.0;;;13.9;91.3
69707;BME280;56975;55.726;37.566;2023-07-13T11:45:00;98820.0;;;14.0;91.0
69707;BME280;56975;55.726;37.566;2023-07-13T11:50:00;98810.0;;;13.9;92.4
69707;BME280;56975;55.726;37.566;2023-07-13T11:55:02;98820.0;;;14.0;92.7
69707;BME280;56975;55.726;37.566;2023-07-13T12:00:04;98820.0;;;14.3;90.3
69707;BME280;56975;55.726;37.566;2023-07-13T12:05:02;98830.0;;;14.4;91.1
69707;BME280;56975;55.726;37.566;2023-07-13T12:10:00;98830.0;;;14.8;88.2
69707;BME280;56975;55.726;37.566;2023-07-13T12:15:00;98830.0;;;14.5;90.2
69707;BME280;56975;55.726;37.566;2023-07-13T12:20:03;98830.0;;;14.5;89.5
69707;BME280;56975;55.726;37.566;2023-07-13T12:25:00;98830.0;;;14.4;90.5
69707;BME280;56975;55.726;37.566;2023-07-13T12:30:05;98820.0;;;14.2;93.0
69707;BME280;56975;55.726;37.566;2023-07-13T12:35:13;98820.0;;;14.5;90.0
69707;BME280;56975;55.726;37.566;2023-07-13T12:40:01;98820.0;;;14.4;90.3
69707;BME280;56975;55.726;37.566;2023-07-13T12:45:03;98820.0;;;14.2;91.5
69707;BME280;56975;55.726;37.566;2023-07-13T12:50:03;98810.0;;;13.9;93.7
69707;BME280;56975;55.726;37.566;2023-07-13T12:55:05;98820.0;;;13.7;95.3
69707;BME280;56975;55.726;37.566;2023-07-13T13:00:06;98810.0;;;13.8;95.3
69707;BME280;56975;55.726;37.566;2023-07-13T13:05:01;98810.0;;;13.7;95.6
69707;BME280;56975;55.726;37.566;2023-07-13T13:10:00;98810.0;;;13.9;94.0
69707;BME280;56975;55.726;37.566;2023-07-13T13:15:00;98800.0;;;13.9;93.7
69707;BME280;56975;55.726;37.566;2023-07-13T13:20:00;98800.0;;;14.1;91.1
69707;BME280;56975;55.726;37.566;2023-07-13T13:25:00;98810.0;;;14.1;90.2
69707;BME280;56975;55.726;37.566;2023-07-13T13:30:00;98810.0;;;14.4;89.0
69707;BME280;56975;55.726;37.566;2023-07-13T13:35:00;98800.0;;;14.2;89.4
69707;BME280;56975;55.726;37.566;2023-07-13T13:40:00;98800.0;;;14.3;88.5
69707;BME280;56975;55.726;37.566;2023-07-13T13:45:00;98810.0;;;14.2;89.4
69707;BME280;56975;55.726;37.566;2023-07-13T13:50:00;98790.0;;;14.1;89.0
69707;BME280;56975;55.726;37.566;2023-07-13T13:55:00;98780.0;;;13.9;91.2
69707;BME280;56975;55.726;37.566;2023-07-13T14:00:00;98800.0;;;13.5;94.9
69707;BME280;56975;55.726;37.566;2023-07-13T14:05:02;98800.0;;;13.4;97.8
69707;BME280;56975;55.726;37.566;2023-07-13T14:10:00;98790.0;;;13.5;98.1
69707;BME280;56975;55.726;37.566;2023-07-13T14:15:00;98800.0;;;13.5;98.8
69707;BME280;56975;55.726;37.566;2023-07-13T14:20:00;98810.0;;;13.4;99.8
69707;BME280;56975;55.726;37.566;2023-07-13T14:25:00;98790.0;;;13.5;99.4
69707;BME280;56975;55.726;37.566;2023-07-13T14:30:00;98790.0;;;13.6;98.6
69707;BME280;56975;55.726;37.566;2023-07-13T14:35:00;98790.0;;;13.6;99.6
69707;BME280;56975;55.726;37.566;2023-07-13T14:40:00;98790.0;;;13.4;100.0
69707;BME280;56975;55.726;37.566;2023-07-13T14:45:00;98800.0;;;13.5;100.0
69707;BME280;56975;55.726;37.566;2023-07-13T14:50:00;98790.0;;;13.7;100.0
69707;BME280;56975;55.726;37.566;2023-07-13T14:55:00;98790.0;;;13.6;100.0
69707;BME280;56975;55.726;37.566;2023-07-13T15:00:00;98790.0;;;13.7;100.0
69707;BME280;56975;55.726;37.566;2023-07-13T15:05:00;98800.0;;;13.7;100.0
69707;BME280;56975;55.726;37.566;2023-07-13T15:10:00;98800.0;;;13.7;100.0
69707;BME280;56975;55.726;37.566;2023-07-13T15:15:00;98800.0;;;13.7;100.0
69707;BME280;56975;55.726;37.566;2023-07-13T15:20:00;98800.0;;;13.5;100.0
69707;BME280;56975;55.726;37.566;2023-07-13T15:25:00;98790.0;;;13.6;100.0
69707;BME280;56975;55.726;37.566;2023-07-13T15:30:00;98790.0;;;13.4;100.0
69707;BME280;56975;55.726;37.566;2023-07-13T15:35:00;98790.0;;;13.4;100.0
69707;BME280;56975;55.726;37.566;2023-07-13T15:40:00;98780.0;;;13.4;100.0
69707;BME280;56975;55.726;37.566;2023-07-13T15:45:00;98770.0;;;13.2;100.0
69707;BME280;56975;55.726;37.566;2023-07-13T15:50:00;98780.0;;;13.2;100.0
69707;BME280;56975;55.726;37.566;2023-07-13T15:55:00;98770.0;;;13.3;100.0
69707;BME280;56975;55.726;37.566;2023-07-13T16:00:00;98770.0;;;13.3;100.0
69707;BME280;56975;55.726;37.566;2023-07-13T16:05:00;98790.0;;;13.6;100.0
69707;BME280;56975;55.726;37.566;2023-07-13T16:10:00;98780.0;;;13.6;100.0
69707;BME280;56975;55.726;37.566;2023-07-13T16:15:00;98780.0;;;13.5;100.0
69707;BME280;56975;55.726;37.566;2023-07-13T16:20:00;98780.0;;;13.5;100.0
69707;BME280;56975;55.726;37.566;2023-07-13T16:25:00;98790.0;;;13.3;100.0
69707;BME280;56975;55.726;37.566;2023-07-13T16:30:08;98780.0;;;13.5;100.0
69707;BME280;56975;55.726;37.566;2023-07-13T16:35:00;98780.0;;;13.5;100.0
69707;BME280;56975;55.726;37.566;2023-07-13T16:40:01;98780.0;;;13.4;100.0
69707;BME280;56975;55.726;37.566;2023-07-13T16:45:00;98780.0;;;13.3;100.0
69707;BME280;56975;55.726;37.566;2023-07-13T16:50:00;98770.0;;;13.4;100.0
69707;BME280;56975;55.726;37.566;2023-07-13T16:55:00;98770.0;;;13.3;100.0
69707;BME280;56975;55.726;37.566;2023-07-13T17:00:00;98760.0;;;13.2;100.0
69707;BME280;56975;55.726;37.566;2023-07-13T17:05:00;98770.0;;;13.2;100.0
69707;BME280;56975;55.726;37.566;2023-07-13T17:10:00;98760.0;;;13.3;100.0
69707;BME280;56975;55.726;37.566;2023-07-13T17:15:01;98770.0;;;13.2;100.0
69707;BME280;56975;55.726;37.566;2023-07-13T17:20:01;98760.0;;;13.4;100.0
69707;BME280;56975;55.726;37.566;2023-07-13T17:25:00;98760.0;;;13.3;100.0
69707;BME280;56975;55.726;37.566;2023-07-13T17:30:00;98770.0;;;13.6;100.0
69707;BME280;56975;55.726;37.566;2023-07-13T17:35:15;98770.0;;;13.4;100.0
69707;BME280;56975;55.726;37.566;2023-07-13T17:40:00;98770.0;;;13.3;100.0
69707;BME280;56975;55.726;37.566;2023-07-13T17:45:00;98770.0;;;13.7;100.0
69707;BME280;56975;55.726;37.566;2023-07-13T17:50:00;98760.0;;;13.3;100.0
69707;BME280;56975;55.726;37.566;2023-07-13T17:55:04;98760.0;;;13.4;100.0
69707;BME280;56975;55.726;37.566;2023-07-13T18:00:00;98760.0;;;13.4;100.0
69707;BME280;56975;55.726;37.566;2023-07-13T18:05:00;98770.0;;;13.4;100.0
69707;BME280;56975;55.726;37.566;2023-07-13T18:10:00;98770.0;;;13.5;100.0
69707;BME280;56975;55.726;37.566;2023-07-13T18:15:00;98770.0;;;13.6;100.0
69707;BME280;56975;55.726;37.566;2023-07-13T18:20:00;98780.0;;;13.4;100.0
69707;BME280;56975;55.726;37.566;2023-07-13T18:25:01;98780.0;;;13.5;100.0
69707;BME280;56975;55.726;37.566;2023-07-13T18:30:00;98790.0;;;13.4;100.0
69707;BME280;56975;55.726;37.566;2023-07-13T18:35:00;98810.0;;;13.6;100.0
69707;BME280;56975;55.726;37.566;2023-07-13T18:40:00;98800.0;;;13.7;100.0
69707;BME280;56975;55.726;37.566;2023-07-13T18:45:00;98810.0;;;13.6;100.0
69707;BME280;56975;55.726;37.566;2023-07-13T18:50:00;98810.0;;;13.8;100.0
69707;BME280;56975;55.726;37.566;2023-07-13T18:55:00;98810.0;;;13.6;100.0
69707;BME280;56975;55.726;37.566;2023-07-13T19:00:00;98810.0;;;13.8;100.0
69707;BME280;56975;55.726;37.566;2023-07-13T19:05:00;98800.0;;;13.9;100.0
69707;BME280;56975;55.726;37.566;2023-07-13T19:10:00;98810.0;;;13.9;100.0
69707;BME280;56975;55.726;37.566;2023-07-13T19:15:00;98810.0;;;13.8;100.0
69707;BME280;56975;55.726;37.566;2023-07-13T19:20:00;98800.0;;;13.8;100.0
69707;BME280;56975;55.726;37.566;2023-07-13T19:25:00;98810.0;;;13.8;100.0
69707;BME280;56975;55.726;37.566;2023-07-13T19:30:00;98810.0;;;13.8;100.0
69707;BME280;56975;55.726;37.566;2023-07-13T19:35:00;98800.0;;;13.9;100.0
69707;BME280;56975;55.726;37.566;2023-07-13T19:40:00;98800.0;;;13.8;100.0
69707;BME280;56975;55.726;37.566;2023-07-13T19:45:00;98790.0;;;13.7;100.0
69707;BME280;56975;55.726;37.566;2023-07-13T19:50:00;98790.0;;;13.6;100.0
69707;BME280;56975;55.726;37.566;2023-07-13T19:55:00;98810.0;;;13.9;100.0
69707;BME280;56975;55.726;37.566;2023-07-13T20:00:00;98810.0;;;14.0;100.0
69707;BME280;56975;55.726;37.566;2023-07-13T20:05:00;98810.0;;;13.9;100.0
69707;BME280;56975;55.726;37.566;2023-07-13T20:10:00;98810.0;;;13.8;100.0
69707;BME280;56975;55.726;37.566;2023-07-13T20:15:00;98820.0;;;13.8;100.0
69707;BME280;56975;55.726;37.566;2023-07-13T20:20:02;98820.0;;;13.8;100.0
69707;BME280;56975;55.726;37.566;2023-07-13T20:25:00;98820.0;;;14.0;100.0
69707;BME280;56975;55.726;37.566;2023-07-13T20:30:00;98820.0;;;13.9;100.0
69707;BME280;56975;55.726;37.566;2023-07-13T20:35:00;98830.0;;;14.0;100.0
69707;BME280;56975;55.726;37.566;2023-07-13T20:40:00;98830.0;;;14.0;100.0
69707;BME280;56975;55.726;37.566;2023-07-13T20:45:00;98830.0;;;13.9;100.0
69707;BME280;56975;55.726;37.566;2023-07-13T20:50:00;98820.0;;;14.0;100.0
69707;BME280;56975;55.726;37.566;2023-07-13T20:55:04;98830.0;;;14.0;100.0
69707;BME280;56975;55.726;37.566;2023-07-13T21:00:00;98830.0;;;13.9;100.0
69707;BME280;56975;55.726;37.566;2023-07-13T21:05:12;98830.0;;;14.0;100.0
69707;BME280;56975;55.726;37.566;2023-07-13T21:10:00;98830.0;;;14.0;100.0
69707;BME280;56975;55.726;37.566;2023-07-13T21:15:02;98840.0;;;13.8;100.0
69707;BME280;56975;55.726;37.566;2023-07-13T21:20:00;98830.0;;;14.1;100.0
69707;BME280;56975;55.726;37.566;2023-07-13T21:25:00;98830.0;;;14.2;99.1
69707;BME280;56975;55.726;37.566;2023-07-13T21:30:00;98830.0;;;14.2;98.7
69707;BME280;56975;55.726;37.566;2023-07-13T21:35:00;98820.0;;;14.2;98.1
69707;BME280;56975;55.726;37.566;2023-07-13T21:40:00;98820.0;;;13.9;99.2
69707;BME280;56975;55.726;37.566;2023-07-13T21:45:00;98810.0;;;14.1;98.7
69707;BME280;56975;55.726;37.566;2023-07-13T21:50:00;98810.0;;;13.8;100.0
69707;BME280;56975;55.726;37.566;2023-07-13T21:55:00;98810.0;;;13.9;100.0
69707;BME280;56975;55.726;37.566;2023-07-13T22:00:00;98820.0;;;13.5;100.0
69707;BME280;56975;55.726;37.566;2023-07-13T22:05:00;98810.0;;;13.9;100.0
69707;BME280;56975;55.726;37.566;2023-07-13T22:10:00;98810.0;;;13.8;100.0
69707;BME280;56975;55.726;37.566;2023-07-13T22:15:00;98810.0;;;13.7;100.0
69707;BME280;56975;55.726;37.566;2023-07-13T22:20:00;98810.0;;;13.6;100.0
69707;BME280;56975;55.726;37.566;2023-07-13T22:25:00;98810.0;;;13.8;100.0
69707;BME280;56975;55.726;37.566;2023-07-13T22:30:00;98810.0;;;13.7;100.0
69707;BME280;56975;55.726;37.566;2023-07-13T22:35:00;98810.0;;;13.7;100.0
69707;BME280;56975;55.726;37.566;2023-07-13T22:40:00;98800.0;;;13.9;100.0
69707;BME280;56975;55.726;37.566;2023-07-13T22:45:00;98810.0;;;13.8;100.0
69707;BME280;56975;55.726;37.566;2023-07-13T22:50:00;98800.0;;;13.9;100.0
69707;BME280;56975;55.726;37.566;2023-07-13T22:55:00;98800.0;;;14.0;100.0
69707;BME280;56975;55.726;37.566;2023-07-13T23:00:00;98800.0;;;14.0;100.0
69707;BME280;56975;55.726;37.566;2023-07-13T23:05:00;98800.0;;;14.1;100.0
69707;BME280;56975;55.726;37.566;2023-07-13T23:10:00;98790.0;;;14.0;100.0
69707;BME280;56975;55.726;37.566;2023-07-13T23:15:00;98790.0;;;14.1;100.0
69707;BME280;56975;55.726;37.566;2023-07-13T23:20:00;98800.0;;;13.9;100.0
69707;BME280;56975;55.726;37.566;2023-07-13T23:25:00;98800.0;;;14.0;100.0
69707;BME280;56975;55.726;37.566;2023-07-13T23:30:00;98790.0;;;13.9;100.0
69707;BME280;56975;55.726;37.566;2023-07-13T23:35:00;98790.0;;;13.8;100.0
69707;BME280;56975;55.726;37.566;2023-07-13T23:40:00;98800.0;;;13.9;100.0
69707;BME280;56975;55.726;37.566;2023-07-13T23:45:00;98800.0;;;13.9;100.0
69707;BME280;56975;55.726;37.566;2023-07-13T23:50:01;98790.0;;;13.9;100.0
69707;BME280;56975;55.726;37.566;2023-07-13T23:55:00;98790.0;;;14.1;100.0
